createdAt,value
2023-02-28T00:01:16.978Z,36.61
2023-02-28T00:03:18.947Z,36.77
2023-02-28T00:05:22.542Z,36.84
2023-02-28T00:07:24.343Z,36.99
2023-02-28T00:09:26.168Z,37.27
2023-02-28T00:11:28.213Z,37.11
2023-02-28T00:13:30.239Z,37.19
2023-02-28T00:15:33.738Z,37.15
2023-02-28T00:17:36.264Z,37.42
2023-02-28T00:19:38.112Z,37.41
2023-02-28T00:21:40.010Z,37.61
2023-02-28T00:23:41.975Z,37.42
2023-02-28T00:25:44.004Z,37.50
2023-02-28T00:27:46.315Z,37.36
2023-02-28T00:29:48.135Z,37.86
2023-02-28T00:31:51.135Z,37.27
2023-02-28T00:33:52.867Z,37.71
2023-02-28T00:36:03.218Z,38.57
2023-02-28T00:38:04.950Z,38.47
2023-02-28T00:40:08.330Z,38.29
2023-02-28T00:42:09.918Z,38.48
2023-02-28T00:44:12.079Z,38.41
2023-02-28T00:46:15.914Z,38.16
2023-02-28T00:48:18.876Z,38.36
2023-02-28T00:50:20.875Z,38.16
2023-02-28T00:52:22.512Z,38.67
2023-02-28T00:54:24.891Z,38.81
2023-02-28T00:56:26.568Z,38.49
2023-02-28T00:58:28.257Z,38.80
2023-02-28T01:00:29.849Z,39.07
2023-02-28T01:02:31.517Z,39.41
2023-02-28T01:04:34.740Z,39.70
2023-02-28T01:06:36.672Z,39.50
2023-02-28T01:08:38.404Z,40.11
2023-02-28T01:10:40.155Z,40.10
2023-02-28T01:12:41.764Z,39.35
2023-02-28T01:14:43.638Z,40.16
2023-02-28T01:16:45.632Z,40.10
2023-02-28T01:18:47.330Z,40.11
2023-02-28T01:20:50.465Z,40.48
2023-02-28T01:22:52.080Z,40.49
2023-02-28T01:24:55.049Z,39.98
2023-02-28T01:26:56.691Z,40.35
2023-02-28T01:28:58.983Z,40.51
2023-02-28T01:31:00.654Z,40.84
2023-02-28T01:33:02.363Z,40.68
2023-02-28T01:35:04.436Z,40.62
2023-02-28T01:37:07.338Z,40.94
2023-02-28T01:39:09.019Z,41.11
2023-02-28T01:41:17.900Z,41.36
2023-02-28T01:43:24.462Z,41.39
2023-02-28T01:45:28.314Z,41.59
2023-02-28T01:47:33.803Z,41.50
2023-02-28T01:49:35.732Z,41.56
2023-02-28T01:51:42.180Z,41.57
2023-02-28T01:53:48.675Z,41.65
2023-02-28T01:55:53.496Z,41.92
2023-02-28T01:57:59.123Z,41.52
2023-02-28T02:00:03.954Z,41.56
2023-02-28T02:04:39.888Z,41.80
2023-02-28T02:06:44.705Z,42.04
2023-02-28T02:08:47.654Z,42.09
2023-02-28T02:10:52.246Z,41.94
2023-02-28T02:13:09.506Z,42.19
2023-02-28T02:15:16.862Z,42.34
2023-02-28T02:17:27.177Z,42.65
2023-02-28T02:20:00.839Z,43.08
2023-02-28T02:22:23.878Z,43.09
2023-02-28T02:25:00.288Z,43.24
2023-02-28T02:27:16.803Z,42.94
2023-02-28T02:29:48.026Z,43.25
2023-02-28T02:32:03.184Z,43.22
2023-02-28T02:34:40.146Z,43.62
2023-02-28T02:36:46.620Z,43.66
2023-02-28T02:38:53.059Z,43.02
2023-02-28T02:41:05.199Z,43.98
2023-02-28T02:43:11.530Z,44.06
2023-02-28T02:45:18.285Z,44.03
2023-02-28T02:47:23.940Z,44.44
2023-02-28T02:49:30.654Z,44.10
2023-02-28T02:51:34.730Z,44.12
2023-02-28T02:53:41.777Z,44.25
2023-02-28T02:55:47.953Z,44.36
2023-02-28T02:57:53.729Z,43.96
2023-02-28T02:59:57.278Z,43.94
2023-02-28T03:02:02.633Z,43.97
2023-02-28T03:04:08.327Z,43.47
2023-02-28T03:06:09.935Z,44.18
2023-02-28T03:08:12.987Z,45.18
2023-02-28T03:10:35.560Z,45.67
2023-02-28T03:12:45.628Z,45.99
2023-02-28T03:14:56.866Z,45.96
2023-02-28T03:17:15.380Z,45.59
2023-02-28T03:19:39.362Z,45.80
2023-02-28T03:21:47.564Z,45.96
2023-02-28T03:23:58.300Z,46.09
2023-02-28T03:26:05.106Z,45.56
2023-02-28T03:28:15.575Z,45.82
2023-02-28T03:30:23.869Z,46.40
2023-02-28T03:32:29.958Z,46.20
2023-02-28T03:34:36.466Z,46.01
2023-02-28T03:36:42.513Z,46.00
2023-02-28T03:38:47.758Z,45.71
2023-02-28T03:40:56.058Z,45.82
2023-02-28T03:43:03.374Z,46.54
2023-02-28T03:45:10.117Z,45.59
2023-02-28T03:47:16.261Z,45.34
2023-02-28T03:49:21.501Z,44.83
2023-02-28T03:51:25.738Z,44.99
2023-02-28T03:53:30.612Z,45.14
2023-02-28T03:55:39.853Z,45.43
2023-02-28T03:57:53.969Z,45.58
2023-02-28T04:00:00.478Z,45.82
2023-02-28T04:02:02.598Z,45.65
2023-02-28T04:04:05.015Z,46.01
2023-02-28T04:06:09.161Z,46.20
2023-02-28T04:08:10.768Z,46.19
2023-02-28T04:10:13.151Z,45.50
2023-02-28T04:12:14.737Z,46.12
2023-02-28T04:14:17.646Z,46.52
2023-02-28T04:16:33.976Z,46.92
2023-02-28T04:18:36.818Z,46.32
2023-02-28T04:20:38.430Z,46.80
2023-02-28T04:22:39.999Z,46.92
2023-02-28T04:24:41.643Z,46.97
2023-02-28T04:26:45.441Z,46.96
2023-02-28T04:28:47.061Z,47.07
2023-02-28T04:30:55.683Z,47.24
2023-02-28T04:33:00.799Z,47.11
2023-02-28T04:35:02.464Z,46.89
2023-02-28T04:37:13.953Z,46.93
2023-02-28T04:39:15.997Z,47.92
2023-02-28T04:41:17.688Z,48.01
2023-02-28T04:43:22.321Z,47.63
2023-02-28T04:45:23.907Z,47.84
2023-02-28T04:47:26.816Z,47.59
2023-02-28T04:49:28.371Z,47.30
2023-02-28T04:51:30.507Z,46.95
2023-02-28T04:53:32.999Z,47.24
2023-02-28T04:55:34.613Z,47.47
2023-02-28T04:57:36.274Z,47.35
2023-02-28T04:59:37.970Z,47.68
2023-02-28T05:01:39.548Z,47.43
2023-02-28T05:03:42.995Z,48.32
2023-02-28T05:05:44.597Z,47.60
2023-02-28T05:07:46.205Z,47.81
2023-02-28T05:09:47.864Z,48.12
2023-02-28T05:11:49.445Z,48.41
2023-02-28T05:13:52.008Z,48.51
2023-02-28T05:15:53.681Z,48.49
2023-02-28T05:17:55.384Z,47.90
2023-02-28T05:20:09.726Z,48.93
2023-02-28T05:22:14.936Z,48.96
2023-02-28T05:24:16.717Z,48.83
2023-02-28T05:26:18.315Z,48.87
2023-02-28T05:28:19.902Z,48.50
2023-02-28T05:30:21.733Z,48.51
2023-02-28T05:32:23.492Z,48.28
2023-02-28T05:34:25.053Z,48.15
2023-02-28T05:36:28.423Z,48.32
2023-02-28T05:38:30.091Z,48.45
2023-02-28T05:40:31.710Z,48.57
2023-02-28T05:42:33.264Z,48.40
2023-02-28T05:44:34.908Z,48.88
2023-02-28T05:46:36.535Z,48.78
2023-02-28T05:48:39.552Z,48.28
2023-02-28T05:50:41.314Z,48.81
2023-02-28T05:52:44.252Z,48.14
2023-02-28T05:54:47.168Z,48.19
2023-02-28T05:56:48.704Z,48.36
2023-02-28T05:58:50.270Z,48.12
2023-02-28T06:00:52.208Z,47.95
2023-02-28T06:02:53.851Z,48.17
2023-02-28T06:04:55.439Z,48.63
2023-02-28T06:06:57.116Z,48.03
2023-02-28T06:09:00.012Z,47.92
2023-02-28T06:11:03.936Z,47.85
2023-02-28T06:13:05.889Z,47.41
2023-02-28T06:15:08.592Z,47.59
2023-02-28T06:17:10.845Z,47.40
2023-02-28T06:19:12.477Z,47.54
2023-02-28T06:21:14.089Z,47.60
2023-02-28T06:23:15.621Z,47.51
2023-02-28T06:25:18.892Z,47.51
2023-02-28T06:27:20.404Z,47.51
2023-02-28T06:29:22.238Z,47.51
2023-02-28T06:31:24.046Z,47.47
2023-02-28T06:33:25.823Z,47.38
2023-02-28T06:35:27.424Z,47.27
2023-02-28T06:37:29.061Z,46.78
2023-02-28T06:39:30.889Z,46.97
2023-02-28T06:41:47.919Z,47.46
2023-02-28T06:43:55.060Z,47.25
2023-02-28T06:45:58.472Z,47.19
2023-02-28T06:48:00.115Z,46.92
2023-02-28T06:50:01.749Z,46.74
2023-02-28T06:52:03.764Z,46.71
2023-02-28T06:54:06.462Z,46.51
2023-02-28T06:56:10.074Z,46.82
2023-02-28T06:58:12.979Z,46.58
2023-02-28T07:00:15.677Z,46.37
2023-02-28T07:02:17.341Z,46.95
2023-02-28T07:04:18.904Z,46.60
2023-02-28T07:06:20.753Z,46.60
2023-02-28T07:08:22.432Z,46.43
2023-02-28T07:10:24.203Z,46.45
2023-02-28T07:12:25.910Z,46.04
2023-02-28T07:14:28.795Z,46.26
2023-02-28T07:16:30.357Z,45.92
2023-02-28T07:18:32.659Z,45.95
2023-02-28T07:20:34.250Z,46.02
2023-02-28T07:22:35.824Z,46.54
2023-02-28T07:24:37.378Z,46.31
2023-02-28T07:26:39.016Z,46.08
2023-02-28T07:28:40.536Z,46.53
2023-02-28T07:30:43.604Z,46.00
2023-02-28T07:32:45.408Z,45.78
2023-02-28T07:34:46.965Z,45.45
2023-02-28T07:36:48.710Z,45.62
2023-02-28T07:38:50.478Z,45.56
2023-02-28T07:40:52.170Z,45.85
2023-02-28T07:42:53.754Z,45.54
2023-02-28T07:44:55.324Z,45.02
2023-02-28T07:46:58.742Z,44.81
2023-02-28T07:49:00.430Z,44.77
2023-02-28T07:51:02.624Z,44.45
2023-02-28T07:53:05.774Z,44.35
2023-02-28T07:55:09.071Z,43.91
2023-02-28T07:57:10.712Z,43.44
2023-02-28T07:59:12.388Z,43.55
2023-02-28T08:01:14.187Z,43.41
2023-02-28T08:03:18.027Z,43.17
2023-02-28T08:05:21.977Z,43.20
2023-02-28T08:07:23.864Z,43.26
2023-02-28T08:09:25.598Z,42.80
2023-02-28T08:11:27.344Z,42.63
2023-02-28T08:13:29.921Z,42.46
2023-02-28T08:15:31.648Z,42.28
2023-02-28T08:17:35.358Z,42.80
2023-02-28T08:19:38.399Z,42.08
2023-02-28T08:21:48.616Z,41.67
2023-02-28T08:23:51.405Z,41.88
2023-02-28T08:25:56.422Z,42.00
2023-02-28T08:27:58.270Z,41.65
2023-02-28T08:29:59.835Z,41.24
2023-02-28T08:32:01.571Z,41.60
2023-02-28T08:34:06.392Z,41.48
2023-02-28T08:36:09.996Z,41.15
2023-02-28T08:38:11.605Z,40.52
2023-02-28T08:40:13.284Z,40.34
2023-02-28T08:42:14.919Z,40.23
2023-02-28T08:44:16.548Z,39.87
2023-02-28T08:46:18.474Z,40.02
2023-02-28T08:48:20.078Z,39.75
2023-02-28T08:50:22.004Z,39.19
2023-02-28T08:52:24.947Z,39.46
2023-02-28T08:54:26.616Z,39.13
2023-02-28T08:56:29.819Z,38.69
2023-02-28T08:58:31.974Z,39.10
2023-02-28T09:00:33.523Z,38.67
2023-02-28T09:02:35.102Z,38.69
2023-02-28T09:04:36.668Z,38.61
2023-02-28T09:06:39.191Z,38.16
2023-02-28T09:08:42.731Z,37.79
2023-02-28T09:10:44.384Z,37.71
2023-02-28T09:12:46.071Z,37.25
2023-02-28T09:14:47.642Z,36.95
2023-02-28T09:16:49.486Z,36.72
2023-02-28T09:18:51.231Z,36.22
2023-02-28T09:20:53.328Z,36.28
2023-02-28T09:22:55.001Z,35.73
2023-02-28T09:24:57.898Z,35.26
2023-02-28T09:27:05.092Z,35.12
2023-02-28T09:29:07.234Z,35.18
2023-02-28T09:31:13.681Z,34.18
2023-02-28T09:33:21.651Z,34.16
2023-02-28T09:35:25.167Z,34.12
2023-02-28T09:37:26.797Z,34.39
2023-02-28T09:39:28.487Z,34.25
2023-02-28T09:41:39.046Z,33.95
2023-02-28T09:43:44.277Z,34.09
2023-02-28T09:45:53.510Z,33.54
2023-02-28T09:47:59.844Z,33.98
2023-02-28T09:50:23.103Z,33.17
2023-02-28T09:52:29.279Z,33.44
2023-02-28T09:54:33.742Z,33.28
2023-02-28T09:56:39.831Z,33.03
2023-02-28T09:58:50.252Z,33.77
2023-02-28T10:01:01.195Z,33.03
2023-02-28T10:03:26.320Z,32.17
2023-02-28T10:05:31.181Z,32.18
2023-02-28T10:07:48.994Z,32.39
2023-02-28T10:09:56.066Z,32.48
2023-02-28T10:12:04.833Z,31.35
2023-02-28T10:14:14.082Z,31.98
2023-02-28T10:16:21.104Z,31.60
2023-02-28T10:18:28.212Z,32.34
2023-02-28T10:20:34.511Z,32.27
2023-02-28T10:22:42.394Z,32.02
2023-02-28T10:24:45.856Z,31.95
2023-02-28T10:26:48.765Z,32.06
2023-02-28T10:28:54.051Z,32.27
2023-02-28T10:30:56.371Z,31.88
2023-02-28T10:32:58.043Z,32.07
2023-02-28T10:35:07.369Z,32.34
2023-02-28T10:37:09.655Z,32.59
2023-02-28T10:39:36.124Z,32.65
2023-02-28T10:41:44.356Z,32.72
2023-02-28T10:43:45.964Z,32.60
2023-02-28T10:45:59.229Z,32.50
2023-02-28T10:48:03.678Z,32.44
2023-02-28T10:50:05.986Z,32.44
2023-02-28T10:52:10.605Z,32.37
2023-02-28T10:54:17.237Z,32.20
2023-02-28T10:56:20.775Z,31.50
2023-02-28T10:58:23.480Z,31.15
2023-02-28T11:00:32.936Z,31.29
2023-02-28T11:02:37.572Z,31.56
2023-02-28T11:04:39.395Z,31.26
2023-02-28T11:06:41.068Z,31.04
2023-02-28T11:08:52.117Z,30.68
2023-02-28T11:10:59.669Z,30.32
2023-02-28T11:13:02.872Z,30.04
2023-02-28T11:15:18.773Z,30.13
2023-02-28T11:17:24.049Z,29.84
2023-02-28T11:19:30.935Z,29.05
2023-02-28T11:21:36.460Z,28.82
2023-02-28T11:23:41.869Z,28.79
2023-02-28T11:25:50.138Z,28.26
2023-02-28T11:27:53.311Z,28.80
2023-02-28T11:29:54.961Z,28.70
2023-02-28T11:32:14.314Z,29.14
2023-02-28T11:34:27.696Z,28.36
2023-02-28T11:36:31.452Z,30.22
2023-02-28T11:38:36.443Z,27.99
2023-02-28T11:40:45.051Z,27.48
2023-02-28T11:42:58.453Z,27.82
2023-02-28T11:45:13.399Z,27.38
2023-02-28T11:47:22.511Z,28.09
2023-02-28T11:49:34.142Z,27.33
2023-02-28T11:51:42.948Z,28.55
2023-02-28T11:54:12.566Z,27.86
2023-02-28T11:56:23.682Z,28.04
2023-02-28T11:58:37.820Z,27.83
2023-02-28T12:00:58.782Z,28.33
2023-02-28T12:38:29.604Z,27.53
2023-02-28T12:40:42.325Z,27.25
2023-02-28T12:42:48.319Z,27.05
2023-02-28T12:44:54.142Z,27.46
2023-02-28T12:47:00.598Z,27.79
2023-02-28T12:49:06.971Z,27.99
2023-02-28T12:51:10.278Z,28.09
2023-02-28T12:53:19.612Z,27.71
2023-02-28T12:55:31.447Z,27.50
2023-02-28T12:57:37.170Z,27.85
2023-02-28T12:59:44.860Z,27.71
2023-02-28T13:02:16.720Z,27.96
2023-02-28T13:04:33.177Z,27.78
2023-02-28T13:06:50.634Z,27.84
2023-02-28T13:09:05.720Z,27.51
2023-02-28T13:11:23.838Z,27.68
2023-02-28T13:13:27.311Z,28.36
2023-02-28T13:15:29.343Z,28.81
2023-02-28T13:17:31.212Z,28.48
2023-02-28T13:19:35.689Z,28.95
2023-02-28T13:21:44.604Z,29.13
2023-02-28T13:24:04.470Z,28.44
2023-02-28T13:26:06.516Z,28.50
2023-02-28T13:28:12.658Z,28.91
2023-02-28T13:30:51.598Z,28.67
2023-02-28T13:33:25.253Z,28.36
2023-02-28T13:35:38.010Z,28.63
2023-02-28T13:37:43.866Z,28.90
2023-02-28T13:39:50.823Z,28.92
2023-02-28T13:41:52.555Z,29.24
2023-02-28T13:44:04.496Z,29.32
2023-02-28T13:46:11.563Z,29.51
2023-02-28T13:48:19.870Z,28.94
2023-02-28T13:50:30.270Z,29.02
2023-02-28T13:52:38.372Z,29.65
2023-02-28T13:54:55.037Z,29.87
2023-02-28T13:57:09.983Z,29.94
2023-02-28T13:59:27.369Z,30.11
2023-02-28T14:02:01.951Z,30.68
2023-02-28T14:04:18.870Z,30.88
2023-02-28T14:06:26.919Z,30.78
2023-02-28T14:08:28.663Z,31.01
2023-02-28T14:10:33.578Z,30.96
2023-02-28T14:13:13.436Z,30.72
2023-02-28T14:15:53.637Z,30.58
2023-02-28T14:17:56.054Z,30.40
2023-02-28T14:19:59.035Z,30.87
2023-02-28T14:22:22.541Z,31.09
2023-02-28T14:24:51.218Z,30.89
2023-02-28T14:27:12.708Z,31.09
2023-02-28T14:29:30.931Z,31.20
2023-02-28T14:31:41.670Z,30.48
2023-02-28T14:34:06.067Z,31.11
2023-02-28T14:36:13.467Z,30.45
2023-02-28T14:38:20.570Z,30.85
2023-02-28T14:40:28.532Z,30.85
2023-02-28T14:42:32.152Z,30.96
2023-02-28T14:44:33.835Z,31.20
2023-02-28T14:46:40.041Z,31.35
2023-02-28T14:48:41.742Z,31.00
2023-02-28T14:50:50.448Z,31.54
2023-02-28T14:52:54.255Z,31.71
2023-02-28T14:54:59.077Z,31.09
2023-02-28T14:57:00.722Z,30.91
2023-02-28T14:59:02.344Z,31.20
2023-02-28T15:01:05.226Z,31.34
2023-02-28T15:03:20.790Z,31.62
2023-02-28T15:05:28.148Z,31.64
2023-02-28T15:07:29.961Z,32.07
2023-02-28T15:11:49.141Z,32.09
2023-02-28T15:13:53.164Z,32.38
2023-02-28T15:16:02.454Z,32.69
2023-02-28T15:18:07.425Z,32.12
2023-02-28T15:20:14.898Z,31.86
2023-02-28T15:22:20.271Z,32.06
2023-02-28T15:24:37.085Z,31.57
2023-02-28T15:26:42.080Z,31.86
2023-02-28T15:28:46.834Z,31.98
2023-02-28T15:30:56.545Z,31.62
2023-02-28T15:33:20.354Z,31.82
2023-02-28T15:35:29.070Z,31.89
2023-02-28T15:37:42.822Z,31.70
2023-02-28T15:39:45.629Z,31.60
2023-02-28T15:41:47.243Z,31.40
2023-02-28T15:43:48.910Z,31.56
2023-02-28T15:45:56.509Z,31.36
2023-02-28T15:48:02.665Z,31.89
2023-02-28T15:50:14.961Z,31.85
2023-02-28T15:52:22.189Z,31.68
2023-02-28T15:54:28.042Z,31.67
2023-02-28T15:56:32.360Z,31.53
2023-02-28T15:58:36.083Z,31.84
2023-02-28T16:00:37.753Z,31.70
2023-02-28T16:02:40.444Z,31.40
2023-02-28T16:05:03.861Z,31.49
2023-02-28T16:07:07.000Z,31.93
2023-02-28T16:09:13.174Z,31.81
2023-02-28T16:11:15.377Z,31.92
2023-02-28T16:13:16.968Z,31.94
2023-02-28T16:15:21.026Z,32.21
2023-02-28T16:17:25.400Z,32.36
2023-02-28T16:19:26.960Z,32.20
2023-02-28T16:21:28.803Z,32.09
2023-02-28T16:23:30.844Z,32.68
2023-02-28T16:25:37.900Z,32.63
2023-02-28T16:27:39.851Z,32.91
2023-02-28T16:29:41.621Z,32.85
2023-02-28T16:31:43.195Z,33.14
2023-02-28T16:33:45.868Z,32.87
2023-02-28T16:35:47.719Z,32.47
2023-02-28T16:37:51.230Z,33.07
2023-02-28T16:39:52.798Z,32.87
2023-02-28T16:41:55.767Z,32.85
2023-02-28T16:43:59.852Z,32.85
2023-02-28T16:46:01.766Z,32.31
2023-02-28T16:48:03.560Z,32.25
2023-02-28T16:50:10.294Z,32.84
2023-02-28T16:52:12.016Z,32.68
2023-02-28T16:54:13.614Z,32.67
2023-02-28T16:56:19.598Z,32.51
2023-02-28T16:58:22.611Z,32.61
2023-02-28T17:00:25.860Z,32.58
2023-02-28T17:02:27.626Z,32.83
2023-02-28T17:04:29.317Z,32.63
2023-02-28T17:06:34.070Z,32.63
2023-02-28T17:08:35.601Z,32.62
2023-02-28T17:10:37.177Z,32.71
2023-02-28T17:12:38.747Z,32.38
2023-02-28T17:14:41.716Z,32.54
2023-02-28T17:16:43.932Z,32.67
2023-02-28T17:18:48.686Z,32.58
2023-02-28T17:20:50.421Z,32.96
2023-02-28T17:22:52.340Z,32.88
2023-02-28T17:24:53.910Z,32.89
2023-02-28T17:26:55.575Z,32.93
2023-02-28T17:28:58.109Z,32.84
2023-02-28T17:31:01.096Z,33.10
2023-02-28T17:33:02.717Z,33.18
2023-02-28T17:37:20.753Z,33.14
2023-02-28T17:39:24.091Z,32.69
2023-02-28T17:41:26.228Z,32.62
2023-02-28T17:43:27.995Z,32.56
2023-02-28T17:45:29.600Z,32.55
2023-02-28T17:47:32.734Z,32.96
2023-02-28T17:49:34.407Z,32.88
2023-02-28T17:51:36.002Z,32.58
2023-02-28T17:53:37.533Z,32.69
2023-02-28T17:55:39.351Z,32.76
2023-02-28T17:57:41.538Z,32.73
2023-02-28T17:59:44.692Z,32.96
2023-02-28T18:01:46.321Z,33.21
2023-02-28T18:03:49.477Z,32.95
2023-02-28T18:05:51.147Z,32.92
2023-02-28T18:07:53.059Z,33.07
2023-02-28T18:09:54.749Z,32.94
2023-02-28T18:11:56.884Z,33.40
2023-02-28T18:13:58.519Z,32.66
2023-02-28T18:16:00.188Z,33.44
2023-02-28T18:18:01.967Z,33.47
2023-02-28T18:20:06.088Z,32.98
2023-02-28T18:22:07.684Z,32.89
2023-02-28T18:24:09.472Z,32.59
2023-02-28T18:26:11.107Z,33.37
2023-02-28T18:28:12.682Z,33.13
2023-02-28T18:30:19.787Z,33.50
2023-02-28T18:32:21.458Z,32.78
2023-02-28T18:34:24.074Z,33.18
2023-02-28T18:36:28.131Z,33.24
2023-02-28T18:38:30.069Z,32.78
2023-02-28T18:40:32.147Z,32.93
2023-02-28T18:42:33.718Z,33.04
2023-02-28T18:44:37.204Z,32.81
2023-02-28T18:46:38.935Z,32.57
2023-02-28T18:48:40.795Z,32.76
2023-02-28T18:50:42.592Z,32.36
2023-02-28T18:52:45.538Z,32.71
2023-02-28T18:54:47.111Z,32.69
2023-02-28T18:56:49.307Z,32.81
2023-02-28T18:58:51.415Z,32.77
2023-02-28T19:00:53.053Z,32.66
2023-02-28T19:02:54.686Z,32.63
2023-02-28T19:04:59.270Z,32.63
2023-02-28T19:07:03.844Z,32.95
2023-02-28T19:09:06.822Z,33.09
2023-02-28T19:11:09.447Z,33.20
2023-02-28T19:13:11.014Z,33.24
2023-02-28T19:15:13.495Z,33.16
2023-02-28T19:17:15.114Z,33.03
2023-02-28T19:19:16.839Z,33.14
2023-02-28T19:21:29.411Z,33.34
2023-02-28T19:23:32.122Z,33.13
2023-02-28T19:25:35.088Z,33.51
2023-02-28T19:27:36.986Z,33.72
2023-02-28T19:29:38.591Z,33.94
2023-02-28T19:31:41.157Z,33.84
2023-02-28T19:33:42.822Z,34.21
2023-02-28T19:35:44.452Z,33.52
2023-02-28T19:37:48.863Z,33.99
2023-02-28T19:39:50.445Z,34.23
2023-02-28T19:41:53.432Z,34.14
2023-02-28T19:43:55.097Z,34.11
2023-02-28T19:45:57.106Z,34.07
2023-02-28T19:47:58.733Z,34.09
2023-02-28T19:50:00.324Z,34.48
2023-02-28T19:52:02.105Z,34.93
2023-02-28T19:54:04.194Z,34.77
2023-02-28T19:56:07.064Z,34.72
2023-02-28T19:58:09.999Z,34.39
2023-02-28T20:00:14.619Z,34.32
2023-02-28T20:02:21.622Z,34.43
2023-02-28T20:04:24.158Z,34.52
2023-02-28T20:06:25.792Z,34.28
2023-02-28T20:08:27.477Z,34.19
2023-02-28T20:10:29.060Z,34.38
2023-02-28T20:12:30.602Z,34.41
2023-02-28T20:14:33.595Z,34.45
2023-02-28T20:16:35.427Z,34.50
2023-02-28T20:18:38.107Z,34.22
2023-02-28T20:20:39.685Z,34.30
2023-02-28T20:22:41.307Z,34.35
2023-02-28T20:24:43.516Z,34.57
2023-02-28T20:26:45.039Z,34.32
2023-02-28T20:28:46.972Z,34.13
2023-02-28T20:30:49.933Z,34.05
2023-02-28T20:32:51.575Z,33.85
2023-02-28T20:34:53.407Z,34.03
2023-02-28T20:36:55.028Z,34.35
2023-02-28T20:38:57.420Z,34.15
2023-02-28T20:41:01.123Z,33.98
2023-02-28T20:43:02.789Z,33.89
2023-02-28T20:45:04.992Z,34.20
2023-02-28T20:47:07.966Z,34.01
2023-02-28T20:49:09.845Z,34.34
2023-02-28T20:51:11.653Z,34.53
2023-02-28T20:53:13.212Z,34.54
2023-02-28T20:55:14.785Z,34.58
2023-02-28T20:57:16.534Z,34.36
2023-02-28T20:59:18.119Z,34.37
2023-02-28T21:01:21.629Z,34.65
2023-02-28T21:03:24.600Z,34.54
2023-02-28T21:05:26.235Z,34.79
2023-02-28T21:07:28.395Z,34.86
2023-02-28T21:09:30.022Z,34.60
2023-02-28T21:11:33.766Z,34.81
2023-02-28T21:13:35.468Z,34.72
2023-02-28T21:15:37.858Z,34.24
2023-02-28T21:17:39.493Z,34.97
2023-02-28T21:19:42.413Z,34.83
2023-02-28T21:21:45.211Z,34.63
2023-02-28T21:23:48.323Z,34.91
2023-02-28T21:25:49.932Z,34.96
2023-02-28T21:27:51.597Z,35.06
2023-02-28T21:29:53.164Z,35.13
2023-02-28T21:31:54.782Z,34.88
2023-02-28T21:33:58.047Z,35.01
2023-02-28T21:36:08.403Z,34.51
2023-02-28T21:38:09.952Z,34.73
2023-02-28T21:40:12.960Z,34.51
2023-02-28T21:42:14.611Z,34.43
2023-02-28T21:44:16.221Z,34.66
2023-02-28T21:46:20.691Z,34.81
2023-02-28T21:48:22.339Z,34.93
2023-02-28T21:50:23.929Z,34.78
2023-02-28T21:52:26.961Z,34.93
2023-02-28T21:54:28.512Z,34.66
2023-02-28T21:56:32.568Z,34.54
2023-02-28T21:58:34.690Z,34.49
2023-02-28T22:00:36.637Z,34.96
2023-02-28T22:02:38.323Z,34.73
2023-02-28T22:04:39.956Z,34.91
2023-02-28T22:06:41.664Z,34.70
2023-02-28T22:08:46.909Z,34.85
2023-02-28T22:10:50.522Z,34.81
2023-02-28T22:12:52.587Z,35.19
2023-02-28T22:14:54.127Z,35.33
2023-02-28T22:16:56.029Z,35.13
2023-02-28T22:18:58.466Z,35.17
2023-02-28T22:21:00.063Z,34.84
2023-02-28T22:23:01.641Z,34.79
2023-02-28T22:25:05.897Z,34.77
2023-02-28T22:27:07.532Z,34.94
2023-02-28T22:29:10.278Z,34.96
2023-02-28T22:31:13.891Z,34.97
2023-02-28T22:33:15.991Z,34.80
2023-02-28T22:35:17.909Z,35.22
2023-02-28T22:37:19.500Z,35.31
2023-02-28T22:39:21.005Z,35.30
2023-02-28T22:41:24.378Z,35.64
2023-02-28T22:43:26.034Z,35.37
2023-02-28T22:45:27.578Z,35.57
2023-02-28T22:47:29.147Z,35.61
2023-02-28T22:49:30.782Z,35.48
2023-02-28T22:51:33.253Z,36.17
2023-02-28T22:53:35.604Z,36.08
2023-02-28T22:55:37.226Z,35.76
2023-02-28T22:57:40.214Z,35.75
2023-02-28T22:59:41.949Z,35.70
2023-02-28T23:01:43.609Z,35.78
2023-02-28T23:03:45.401Z,35.98
2023-02-28T23:05:47.541Z,35.88
2023-02-28T23:07:49.329Z,35.50
2023-02-28T23:09:50.977Z,35.86
2023-02-28T23:11:52.619Z,35.68
2023-02-28T23:13:56.179Z,35.66
2023-02-28T23:16:00.065Z,35.83
2023-02-28T23:18:01.786Z,36.00
2023-02-28T23:20:04.053Z,35.87
2023-02-28T23:22:05.792Z,35.83
2023-02-28T23:24:09.463Z,36.32
2023-02-28T23:26:11.040Z,36.38
2023-02-28T23:28:12.681Z,36.00
2023-02-28T23:30:16.469Z,36.07
2023-02-28T23:32:18.101Z,36.15
2023-02-28T23:34:19.978Z,36.23
2023-02-28T23:36:21.757Z,36.18
2023-02-28T23:38:23.488Z,36.09
2023-02-28T23:40:25.433Z,36.03
2023-02-28T23:42:27.150Z,36.13
2023-02-28T23:44:28.818Z,36.22
2023-02-28T23:46:31.995Z,36.29
2023-02-28T23:48:33.997Z,36.39
2023-02-28T23:50:37.825Z,36.63
2023-02-28T23:52:39.421Z,36.65
2023-02-28T23:54:41.276Z,36.77
2023-02-28T23:56:43.062Z,36.48
2023-02-28T23:58:45.572Z,36.62
